Terminal Aerodrome Forecast
Issued by NWS

Home | Current Version | Previous Version | Text Only | Print | Product List | Glossary On
Versions: 1 2 3 4 5 6 7 8 9 10 11 12 13 14 15 16 17 18 19 20 21
000
FTUS45 KRIW 231720
TAFRKS
TAF
KRKS 231720Z 2318/2418 20011KT P6SM VCSH BKN050
     FM240400 05011G18KT 1/2SM SN SCT006 BKN011 OVC020
     FM240800 VRB06KT 1SM -SN SCT009 BKN015 OVC020=

USA.gov is the U.S. government's official web portal to all federal, state and local government web resources and services.